sensor_id;sensor_type;location;lat;lon;timestamp;temperature;humidity
25482;DHT22;13395;50.752;4.268;2024-03-23T00:55:14;9.80;99.90
25482;DHT22;13395;50.752;4.268;2024-03-23T00:57:40;9.70;99.90
25482;DHT22;13395;50.752;4.268;2024-03-23T01:00:06;9.70;99.90
25482;DHT22;13395;50.752;4.268;2024-03-23T01:02:32;9.80;99.90
25482;DHT22;13395;50.752;4.268;2024-03-23T01:04:58;9.60;99.90
25482;DHT22;13395;50.752;4.268;2024-03-23T01:07:23;9.60;99.90
25482;DHT22;13395;50.752;4.268;2024-03-23T01:09:49;9.50;99.90
25482;DHT22;13395;50.752;4.268;2024-03-23T01:12:15;9.50;99.90
25482;DHT22;13395;50.752;4.268;2024-03-23T01:14:40;9.50;99.90
25482;DHT22;13395;50.752;4.268;2024-03-23T01:17:06;9.40;99.90
25482;DHT22;13395;50.752;4.268;2024-03-23T01:19:32;9.20;99.90
25482;DHT22;13395;50.752;4.268;2024-03-23T01:21:57;9.10;99.90
25482;DHT22;13395;50.752;4.268;2024-03-23T01:24:23;9.00;99.90
25482;DHT22;13395;50.752;4.268;2024-03-23T01:26:48;8.80;99.90
25482;DHT22;13395;50.752;4.268;2024-03-23T01:29:14;8.80;99.90
25482;DHT22;13395;50.752;4.268;2024-03-23T01:31:40;8.80;99.90
25482;DHT22;13395;50.752;4.268;2024-03-23T01:34:05;8.80;99.90
25482;DHT22;13395;50.752;4.268;2024-03-23T01:36:31;8.80;99.90
25482;DHT22;13395;50.752;4.268;2024-03-23T01:38:56;8.70;99.90
25482;DHT22;13395;50.752;4.268;2024-03-23T01:41:24;8.70;99.90
25482;DHT22;13395;50.752;4.268;2024-03-23T01:43:49;8.70;99.90
25482;DHT22;13395;50.752;4.268;2024-03-23T01:46:15;8.80;99.90
25482;DHT22;13395;50.752;4.268;2024-03-23T01:48:41;8.90;99.90
25482;DHT22;13395;50.752;4.268;2024-03-23T01:51:07;9.00;99.90
25482;DHT22;13395;50.752;4.268;2024-03-23T01:53:33;9.20;99.90
25482;DHT22;13395;50.752;4.268;2024-03-23T01:55:59;9.30;99.90
25482;DHT22;13395;50.752;4.268;2024-03-23T01:58:24;9.30;99.90
25482;DHT22;13395;50.752;4.268;2024-03-23T02:00:50;9.30;99.90
25482;DHT22;13395;50.752;4.268;2024-03-23T02:03:26;9.30;99.90
25482;DHT22;13395;50.752;4.268;2024-03-23T02:05:54;9.30;99.90
25482;DHT22;13395;50.752;4.268;2024-03-23T02:08:21;9.30;99.90
25482;DHT22;13395;50.752;4.268;2024-03-23T02:10:48;9.40;99.90
25482;DHT22;13395;50.752;4.268;2024-03-23T02:13:15;9.30;99.90
25482;DHT22;13395;50.752;4.268;2024-03-23T02:15:41;9.20;99.90
25482;DHT22;13395;50.752;4.268;2024-03-23T02:18:08;9.10;99.90
25482;DHT22;13395;50.752;4.268;2024-03-23T02:20:35;9.00;99.90
25482;DHT22;13395;50.752;4.268;2024-03-23T02:23:00;9.00;99.90
25482;DHT22;13395;50.752;4.268;2024-03-23T02:25:26;8.90;99.90
25482;DHT22;13395;50.752;4.268;2024-03-23T02:27:52;8.90;99.90
25482;DHT22;13395;50.752;4.268;2024-03-23T02:30:19;8.90;99.90
25482;DHT22;13395;50.752;4.268;2024-03-23T02:32:45;8.80;99.90
25482;DHT22;13395;50.752;4.268;2024-03-23T02:35:11;8.80;99.90
25482;DHT22;13395;50.752;4.268;2024-03-23T02:37:37;8.80;99.90
25482;DHT22;13395;50.752;4.268;2024-03-23T02:40:02;8.80;99.90
25482;DHT22;13395;50.752;4.268;2024-03-23T02:42:28;8.80;99.90
25482;DHT22;13395;50.752;4.268;2024-03-23T02:44:54;8.70;99.90
25482;DHT22;13395;50.752;4.268;2024-03-23T02:47:20;8.70;99.90
25482;DHT22;13395;50.752;4.268;2024-03-23T02:49:45;8.80;99.90
25482;DHT22;13395;50.752;4.268;2024-03-23T02:52:11;8.70;99.90
25482;DHT22;13395;50.752;4.268;2024-03-23T02:54:36;8.80;99.90
25482;DHT22;13395;50.752;4.268;2024-03-23T02:57:02;8.80;99.90
25482;DHT22;13395;50.752;4.268;2024-03-23T02:59:28;8.70;99.90
25482;DHT22;13395;50.752;4.268;2024-03-23T03:01:53;8.70;99.90
25482;DHT22;13395;50.752;4.268;2024-03-23T03:04:19;8.70;99.90
25482;DHT22;13395;50.752;4.268;2024-03-23T03:06:48;8.60;99.90
25482;DHT22;13395;50.752;4.268;2024-03-23T03:09:14;8.60;99.90
25482;DHT22;13395;50.752;4.268;2024-03-23T03:11:40;8.50;99.90
25482;DHT22;13395;50.752;4.268;2024-03-23T03:14:06;8.50;99.90
25482;DHT22;13395;50.752;4.268;2024-03-23T03:16:33;8.60;99.90
25482;DHT22;13395;50.752;4.268;2024-03-23T03:18:59;8.70;99.90
25482;DHT22;13395;50.752;4.268;2024-03-23T03:21:24;8.70;99.90
25482;DHT22;13395;50.752;4.268;2024-03-23T03:23:50;8.70;99.90
25482;DHT22;13395;50.752;4.268;2024-03-23T03:26:19;8.80;99.90
25482;DHT22;13395;50.752;4.268;2024-03-23T03:28:44;8.80;99.90
25482;DHT22;13395;50.752;4.268;2024-03-23T03:31:17;8.70;99.90
25482;DHT22;13395;50.752;4.268;2024-03-23T03:33:44;8.70;99.90
25482;DHT22;13395;50.752;4.268;2024-03-23T03:36:10;8.70;99.90
25482;DHT22;13395;50.752;4.268;2024-03-23T03:38:36;8.80;99.90
25482;DHT22;13395;50.752;4.268;2024-03-23T03:41:02;8.70;99.90
25482;DHT22;13395;50.752;4.268;2024-03-23T03:43:28;8.60;99.90
25482;DHT22;13395;50.752;4.268;2024-03-23T03:45:54;8.50;99.90
25482;DHT22;13395;50.752;4.268;2024-03-23T03:48:20;8.50;99.90
25482;DHT22;13395;50.752;4.268;2024-03-23T03:50:45;8.50;99.90
25482;DHT22;13395;50.752;4.268;2024-03-23T03:53:11;8.40;99.90
25482;DHT22;13395;50.752;4.268;2024-03-23T03:55:37;8.40;99.90
25482;DHT22;13395;50.752;4.268;2024-03-23T03:58:03;8.40;99.90
25482;DHT22;13395;50.752;4.268;2024-03-23T04:00:30;8.40;99.90
25482;DHT22;13395;50.752;4.268;2024-03-23T04:02:56;8.40;99.90
25482;DHT22;13395;50.752;4.268;2024-03-23T04:05:21;8.40;99.90
25482;DHT22;13395;50.752;4.268;2024-03-23T04:07:47;8.40;99.90
25482;DHT22;13395;50.752;4.268;2024-03-23T04:10:13;8.40;99.90
25482;DHT22;13395;50.752;4.268;2024-03-23T04:12:39;8.40;99.90
25482;DHT22;13395;50.752;4.268;2024-03-23T04:15:05;8.30;99.90
25482;DHT22;13395;50.752;4.268;2024-03-23T04:17:31;8.20;99.90
25482;DHT22;13395;50.752;4.268;2024-03-23T04:19:59;8.20;99.90
25482;DHT22;13395;50.752;4.268;2024-03-23T04:22:26;8.30;99.90
25482;DHT22;13395;50.752;4.268;2024-03-23T04:24:55;8.20;99.90
25482;DHT22;13395;50.752;4.268;2024-03-23T04:27:22;8.20;99.90
25482;DHT22;13395;50.752;4.268;2024-03-23T04:29:52;8.20;99.90
25482;DHT22;13395;50.752;4.268;2024-03-23T04:32:18;8.20;99.90
25482;DHT22;13395;50.752;4.268;2024-03-23T04:34:44;8.20;99.90
25482;DHT22;13395;50.752;4.268;2024-03-23T04:37:11;8.10;99.90
25482;DHT22;13395;50.752;4.268;2024-03-23T04:39:37;8.20;99.90
25482;DHT22;13395;50.752;4.268;2024-03-23T04:42:03;8.20;99.90
25482;DHT22;13395;50.752;4.268;2024-03-23T04:44:29;8.20;99.90
25482;DHT22;13395;50.752;4.268;2024-03-23T04:46:55;8.20;99.90
25482;DHT22;13395;50.752;4.268;2024-03-23T04:49:20;8.30;99.90
25482;DHT22;13395;50.752;4.268;2024-03-23T04:51:46;8.30;99.90
25482;DHT22;13395;50.752;4.268;2024-03-23T04:54:12;8.40;99.90
25482;DHT22;13395;50.752;4.268;2024-03-23T04:56:38;8.40;99.90
25482;DHT22;13395;50.752;4.268;2024-03-23T04:59:03;8.50;99.90
25482;DHT22;13395;50.752;4.268;2024-03-23T05:01:33;8.60;99.90
25482;DHT22;13395;50.752;4.268;2024-03-23T05:03:59;8.50;99.90
25482;DHT22;13395;50.752;4.268;2024-03-23T05:06:25;8.40;99.90
25482;DHT22;13395;50.752;4.268;2024-03-23T05:08:51;8.30;99.90
25482;DHT22;13395;50.752;4.268;2024-03-23T05:11:17;8.20;99.90
25482;DHT22;13395;50.752;4.268;2024-03-23T05:13:43;8.10;99.90
25482;DHT22;13395;50.752;4.268;2024-03-23T05:16:10;8.00;99.90
25482;DHT22;13395;50.752;4.268;2024-03-23T05:18:36;8.10;99.90
25482;DHT22;13395;50.752;4.268;2024-03-23T05:21:02;8.10;99.90
25482;DHT22;13395;50.752;4.268;2024-03-23T05:23:30;8.00;99.90
25482;DHT22;13395;50.752;4.268;2024-03-23T05:25:56;8.10;99.90
25482;DHT22;13395;50.752;4.268;2024-03-23T05:28:22;8.10;99.90
25482;DHT22;13395;50.752;4.268;2024-03-23T05:30:54;8.10;99.90
25482;DHT22;13395;50.752;4.268;2024-03-23T05:33:20;8.10;99.90
25482;DHT22;13395;50.752;4.268;2024-03-23T05:35:47;8.10;99.90
25482;DHT22;13395;50.752;4.268;2024-03-23T05:38:13;8.10;99.90
25482;DHT22;13395;50.752;4.268;2024-03-23T05:40:39;8.00;99.90
25482;DHT22;13395;50.752;4.268;2024-03-23T05:43:08;8.00;99.90
25482;DHT22;13395;50.752;4.268;2024-03-23T05:45:34;8.10;99.90
25482;DHT22;13395;50.752;4.268;2024-03-23T05:48:00;8.10;99.90
25482;DHT22;13395;50.752;4.268;2024-03-23T05:50:26;8.00;99.90
25482;DHT22;13395;50.752;4.268;2024-03-23T05:52:52;7.90;99.90
25482;DHT22;13395;50.752;4.268;2024-03-23T05:55:18;7.90;99.90
25482;DHT22;13395;50.752;4.268;2024-03-23T05:57:43;7.90;99.90
25482;DHT22;13395;50.752;4.268;2024-03-23T06:00:09;7.80;99.90
25482;DHT22;13395;50.752;4.268;2024-03-23T06:02:44;7.80;99.90
25482;DHT22;13395;50.752;4.268;2024-03-23T06:05:11;7.80;99.90
25482;DHT22;13395;50.752;4.268;2024-03-23T06:07:37;7.90;99.90
25482;DHT22;13395;50.752;4.268;2024-03-23T06:10:03;7.90;99.90
25482;DHT22;13395;50.752;4.268;2024-03-23T06:12:29;8.00;99.90
25482;DHT22;13395;50.752;4.268;2024-03-23T06:14:54;8.10;99.90
25482;DHT22;13395;50.752;4.268;2024-03-23T06:17:20;8.10;99.90
25482;DHT22;13395;50.752;4.268;2024-03-23T06:19:46;8.10;99.90
25482;DHT22;13395;50.752;4.268;2024-03-23T06:22:12;8.20;99.90
25482;DHT22;13395;50.752;4.268;2024-03-23T06:24:37;8.20;99.90
25482;DHT22;13395;50.752;4.268;2024-03-23T06:27:03;8.20;99.90
25482;DHT22;13395;50.752;4.268;2024-03-23T06:29:29;8.20;99.90
25482;DHT22;13395;50.752;4.268;2024-03-23T06:31:55;8.20;99.90
25482;DHT22;13395;50.752;4.268;2024-03-23T06:34:21;8.10;99.90
25482;DHT22;13395;50.752;4.268;2024-03-23T06:36:50;8.10;99.90
25482;DHT22;13395;50.752;4.268;2024-03-23T06:39:16;8.00;99.90
25482;DHT22;13395;50.752;4.268;2024-03-23T06:41:54;7.90;99.90
25482;DHT22;13395;50.752;4.268;2024-03-23T06:44:20;7.80;99.90
25482;DHT22;13395;50.752;4.268;2024-03-23T06:46:47;7.80;99.90
25482;DHT22;13395;50.752;4.268;2024-03-23T06:49:14;7.80;99.90
25482;DHT22;13395;50.752;4.268;2024-03-23T06:51:40;7.90;99.90
25482;DHT22;13395;50.752;4.268;2024-03-23T06:54:06;8.10;99.90
25482;DHT22;13395;50.752;4.268;2024-03-23T06:56:32;8.10;99.90
25482;DHT22;13395;50.752;4.268;2024-03-23T06:58:58;8.20;99.90
25482;DHT22;13395;50.752;4.268;2024-03-23T07:01:24;8.20;99.90
25482;DHT22;13395;50.752;4.268;2024-03-23T07:03:50;8.20;99.90
25482;DHT22;13395;50.752;4.268;2024-03-23T07:06:15;8.30;99.90
25482;DHT22;13395;50.752;4.268;2024-03-23T07:08:41;8.40;99.90
25482;DHT22;13395;50.752;4.268;2024-03-23T07:11:07;8.40;99.90
25482;DHT22;13395;50.752;4.268;2024-03-23T07:13:32;8.40;99.90
25482;DHT22;13395;50.752;4.268;2024-03-23T07:15:58;8.40;99.90
25482;DHT22;13395;50.752;4.268;2024-03-23T07:18:25;8.40;99.90
25482;DHT22;13395;50.752;4.268;2024-03-23T07:20:57;8.60;99.90
25482;DHT22;13395;50.752;4.268;2024-03-23T07:23:24;8.30;99.90
25482;DHT22;13395;50.752;4.268;2024-03-23T07:26:02;8.30;99.90
25482;DHT22;13395;50.752;4.268;2024-03-23T07:28:28;8.30;99.90
25482;DHT22;13395;50.752;4.268;2024-03-23T07:31:02;8.50;99.90
25482;DHT22;13395;50.752;4.268;2024-03-23T07:33:28;8.60;99.90
25482;DHT22;13395;50.752;4.268;2024-03-23T07:35:54;8.80;99.90
25482;DHT22;13395;50.752;4.268;2024-03-23T07:38:20;9.00;99.90
25482;DHT22;13395;50.752;4.268;2024-03-23T07:40:45;9.20;99.90
25482;DHT22;13395;50.752;4.268;2024-03-23T07:43:11;9.50;99.90
25482;DHT22;13395;50.752;4.268;2024-03-23T07:45:37;9.40;99.90
25482;DHT22;13395;50.752;4.268;2024-03-23T07:48:04;9.30;99.90
25482;DHT22;13395;50.752;4.268;2024-03-23T07:50:29;9.50;99.90
25482;DHT22;13395;50.752;4.268;2024-03-23T07:52:55;9.80;99.90
25482;DHT22;13395;50.752;4.268;2024-03-23T07:55:21;10.30;99.90
25482;DHT22;13395;50.752;4.268;2024-03-23T07:57:47;11.00;99.90
25482;DHT22;13395;50.752;4.268;2024-03-23T08:00:13;11.10;99.90
25482;DHT22;13395;50.752;4.268;2024-03-23T08:02:39;11.50;99.90
25482;DHT22;13395;50.752;4.268;2024-03-23T08:05:05;12.30;99.90
25482;DHT22;13395;50.752;4.268;2024-03-23T08:07:31;13.30;99.90
25482;DHT22;13395;50.752;4.268;2024-03-23T08:09:57;14.10;99.90
25482;DHT22;13395;50.752;4.268;2024-03-23T08:12:24;14.00;99.90
25482;DHT22;13395;50.752;4.268;2024-03-23T08:14:50;14.00;99.90
25482;DHT22;13395;50.752;4.268;2024-03-23T08:17:15;14.30;99.90
25482;DHT22;13395;50.752;4.268;2024-03-23T08:19:41;13.90;99.90
25482;DHT22;13395;50.752;4.268;2024-03-23T08:22:06;13.50;99.90
25482;DHT22;13395;50.752;4.268;2024-03-23T08:24:32;13.10;99.90
25482;DHT22;13395;50.752;4.268;2024-03-23T08:26:59;12.60;99.90
25482;DHT22;13395;50.752;4.268;2024-03-23T08:29:25;12.50;99.90
25482;DHT22;13395;50.752;4.268;2024-03-23T08:31:50;12.00;99.90
25482;DHT22;13395;50.752;4.268;2024-03-23T08:34:16;12.10;99.90
25482;DHT22;13395;50.752;4.268;2024-03-23T08:36:42;12.50;99.90
25482;DHT22;13395;50.752;4.268;2024-03-23T08:39:07;12.60;99.90
25482;DHT22;13395;50.752;4.268;2024-03-23T08:41:33;12.40;99.90
25482;DHT22;13395;50.752;4.268;2024-03-23T08:43:58;12.70;99.90
25482;DHT22;13395;50.752;4.268;2024-03-23T08:46:24;12.60;99.90
25482;DHT22;13395;50.752;4.268;2024-03-23T08:48:50;12.20;99.90
25482;DHT22;13395;50.752;4.268;2024-03-23T08:51:17;12.10;99.90
25482;DHT22;13395;50.752;4.268;2024-03-23T08:53:43;12.60;99.90
25482;DHT22;13395;50.752;4.268;2024-03-23T08:56:10;12.60;99.90
25482;DHT22;13395;50.752;4.268;2024-03-23T08:58:36;12.50;99.90
25482;DHT22;13395;50.752;4.268;2024-03-23T09:03:34;13.60;99.90
25482;DHT22;13395;50.752;4.268;2024-03-23T09:06:02;13.40;99.90
25482;DHT22;13395;50.752;4.268;2024-03-23T09:08:32;13.40;99.90
25482;DHT22;13395;50.752;4.268;2024-03-23T09:10:57;14.00;99.90
25482;DHT22;13395;50.752;4.268;2024-03-23T09:13:23;14.30;99.90
25482;DHT22;13395;50.752;4.268;2024-03-23T09:15:50;14.30;99.90
25482;DHT22;13395;50.752;4.268;2024-03-23T09:18:16;14.90;99.90
25482;DHT22;13395;50.752;4.268;2024-03-23T09:20:42;15.80;99.90
25482;DHT22;13395;50.752;4.268;2024-03-23T09:23:08;17.60;99.90
25482;DHT22;13395;50.752;4.268;2024-03-23T09:25:40;17.40;99.90
25482;DHT22;13395;50.752;4.268;2024-03-23T09:28:07;16.50;99.80
25482;DHT22;13395;50.752;4.268;2024-03-23T09:30:34;16.20;99.90
25482;DHT22;13395;50.752;4.268;2024-03-23T09:33:00;16.00;99.90
25482;DHT22;13395;50.752;4.268;2024-03-23T09:35:26;16.00;99.90
25482;DHT22;13395;50.752;4.268;2024-03-23T09:37:52;16.00;99.90
25482;DHT22;13395;50.752;4.268;2024-03-23T09:40:17;17.20;99.90
25482;DHT22;13395;50.752;4.268;2024-03-23T09:42:50;16.80;98.20
25482;DHT22;13395;50.752;4.268;2024-03-23T09:45:27;16.40;99.90
25482;DHT22;13395;50.752;4.268;2024-03-23T09:47:55;17.10;98.00
25482;DHT22;13395;50.752;4.268;2024-03-23T09:50:21;17.20;97.60
25482;DHT22;13395;50.752;4.268;2024-03-23T09:52:47;17.40;97.50
25482;DHT22;13395;50.752;4.268;2024-03-23T09:55:13;17.80;95.20
25482;DHT22;13395;50.752;4.268;2024-03-23T09:57:40;18.00;95.30
25482;DHT22;13395;50.752;4.268;2024-03-23T10:00:06;18.80;95.00
25482;DHT22;13395;50.752;4.268;2024-03-23T10:02:34;19.50;92.30
25482;DHT22;13395;50.752;4.268;2024-03-23T10:04:59;19.60;91.50
25482;DHT22;13395;50.752;4.268;2024-03-23T10:07:25;20.20;90.70
25482;DHT22;13395;50.752;4.268;2024-03-23T10:09:51;21.40;89.60
25482;DHT22;13395;50.752;4.268;2024-03-23T10:12:18;21.50;85.90
25482;DHT22;13395;50.752;4.268;2024-03-23T10:14:44;20.50;83.20
25482;DHT22;13395;50.752;4.268;2024-03-23T10:17:18;19.70;85.60
25482;DHT22;13395;50.752;4.268;2024-03-23T10:19:48;18.20;89.40
25482;DHT22;13395;50.752;4.268;2024-03-23T10:22:19;16.50;92.90
25482;DHT22;13395;50.752;4.268;2024-03-23T10:24:45;15.30;94.00
25482;DHT22;13395;50.752;4.268;2024-03-23T10:29:47;14.20;96.50
25482;DHT22;13395;50.752;4.268;2024-03-23T10:32:14;13.70;97.90
25482;DHT22;13395;50.752;4.268;2024-03-23T10:34:40;14.10;99.50
25482;DHT22;13395;50.752;4.268;2024-03-23T10:37:07;15.80;97.20
25482;DHT22;13395;50.752;4.268;2024-03-23T10:39:37;15.90;94.50
25482;DHT22;13395;50.752;4.268;2024-03-23T10:42:05;15.30;95.50
25482;DHT22;13395;50.752;4.268;2024-03-23T10:44:31;15.70;94.10
25482;DHT22;13395;50.752;4.268;2024-03-23T10:46:58;16.60;92.70
25482;DHT22;13395;50.752;4.268;2024-03-23T10:49:35;16.30;92.90
25482;DHT22;13395;50.752;4.268;2024-03-23T10:52:05;16.40;92.00
25482;DHT22;13395;50.752;4.268;2024-03-23T10:54:31;16.70;92.10
25482;DHT22;13395;50.752;4.268;2024-03-23T10:57:05;17.20;92.10
25482;DHT22;13395;50.752;4.268;2024-03-23T10:59:32;17.70;91.50
25482;DHT22;13395;50.752;4.268;2024-03-23T11:01:59;18.00;91.30
25482;DHT22;13395;50.752;4.268;2024-03-23T11:04:36;18.90;90.20
25482;DHT22;13395;50.752;4.268;2024-03-23T11:09:50;20.00;83.70
25482;DHT22;13395;50.752;4.268;2024-03-23T11:15:11;17.90;84.90
25482;DHT22;13395;50.752;4.268;2024-03-23T11:17:38;15.90;89.50
25482;DHT22;13395;50.752;4.268;2024-03-23T11:20:05;15.90;91.90
25482;DHT22;13395;50.752;4.268;2024-03-23T11:25:21;18.00;89.00
25482;DHT22;13395;50.752;4.268;2024-03-23T11:27:52;18.80;88.20
25482;DHT22;13395;50.752;4.268;2024-03-23T11:30:26;17.90;84.80
25482;DHT22;13395;50.752;4.268;2024-03-23T11:32:54;16.90;86.60
25482;DHT22;13395;50.752;4.268;2024-03-23T11:35:30;16.00;88.90
25482;DHT22;13395;50.752;4.268;2024-03-23T11:38:03;16.80;91.10
25482;DHT22;13395;50.752;4.268;2024-03-23T11:40:29;18.10;89.00
25482;DHT22;13395;50.752;4.268;2024-03-23T11:42:59;17.10;88.60
25482;DHT22;13395;50.752;4.268;2024-03-23T11:45:25;16.10;90.20
25482;DHT22;13395;50.752;4.268;2024-03-23T11:48:05;15.40;91.30
25482;DHT22;13395;50.752;4.268;2024-03-23T11:50:30;16.20;91.60
25482;DHT22;13395;50.752;4.268;2024-03-23T11:53:17;16.30;90.40
25482;DHT22;13395;50.752;4.268;2024-03-23T11:55:50;14.90;91.40
25482;DHT22;13395;50.752;4.268;2024-03-23T11:58:17;14.40;92.60
25482;DHT22;13395;50.752;4.268;2024-03-23T12:00:54;13.60;93.40
25482;DHT22;13395;50.752;4.268;2024-03-23T12:03:20;13.20;95.30
25482;DHT22;13395;50.752;4.268;2024-03-23T12:05:51;13.20;96.10
25482;DHT22;13395;50.752;4.268;2024-03-23T12:11:10;14.40;96.90
25482;DHT22;13395;50.752;4.268;2024-03-23T12:13:37;15.80;95.30
25482;DHT22;13395;50.752;4.268;2024-03-23T12:16:17;17.80;93.60
25482;DHT22;13395;50.752;4.268;2024-03-23T12:18:48;19.10;88.60
25482;DHT22;13395;50.752;4.268;2024-03-23T12:21:15;19.30;89.40
25482;DHT22;13395;50.752;4.268;2024-03-23T12:23:41;18.90;91.20
25482;DHT22;13395;50.752;4.268;2024-03-23T12:26:07;17.90;92.70
25482;DHT22;13395;50.752;4.268;2024-03-23T12:28:33;18.60;95.20
25482;DHT22;13395;50.752;4.268;2024-03-23T12:30:58;20.60;92.30
25482;DHT22;13395;50.752;4.268;2024-03-23T12:33:24;20.70;90.50
25482;DHT22;13395;50.752;4.268;2024-03-23T12:35:50;19.60;89.10
25482;DHT22;13395;50.752;4.268;2024-03-23T12:38:16;18.60;91.50
25482;DHT22;13395;50.752;4.268;2024-03-23T12:40:49;17.70;91.90
25482;DHT22;13395;50.752;4.268;2024-03-23T12:43:15;16.30;94.10
25482;DHT22;13395;50.752;4.268;2024-03-23T12:45:46;15.50;96.10
25482;DHT22;13395;50.752;4.268;2024-03-23T12:48:12;14.80;96.40
25482;DHT22;13395;50.752;4.268;2024-03-23T12:50:38;14.30;96.70
25482;DHT22;13395;50.752;4.268;2024-03-23T12:53:04;13.50;97.50
25482;DHT22;13395;50.752;4.268;2024-03-23T12:55:29;13.10;97.80
25482;DHT22;13395;50.752;4.268;2024-03-23T12:57:55;12.60;99.90
25482;DHT22;13395;50.752;4.268;2024-03-23T13:00:21;12.70;99.90
25482;DHT22;13395;50.752;4.268;2024-03-23T13:02:47;13.00;99.90
25482;DHT22;13395;50.752;4.268;2024-03-23T13:05:13;14.10;99.90
25482;DHT22;13395;50.752;4.268;2024-03-23T13:07:39;14.20;98.70
25482;DHT22;13395;50.752;4.268;2024-03-23T13:10:05;13.80;97.50
25482;DHT22;13395;50.752;4.268;2024-03-23T13:12:32;13.20;98.80
25482;DHT22;13395;50.752;4.268;2024-03-23T13:14:59;12.90;99.00
25482;DHT22;13395;50.752;4.268;2024-03-23T13:17:25;12.70;99.60
25482;DHT22;13395;50.752;4.268;2024-03-23T13:19:52;12.40;99.90
25482;DHT22;13395;50.752;4.268;2024-03-23T13:22:18;12.00;99.90
25482;DHT22;13395;50.752;4.268;2024-03-23T13:24:44;11.70;99.90
25482;DHT22;13395;50.752;4.268;2024-03-23T13:27:10;11.80;99.90
25482;DHT22;13395;50.752;4.268;2024-03-23T13:29:36;12.20;99.90
25482;DHT22;13395;50.752;4.268;2024-03-23T13:32:03;12.10;99.90
25482;DHT22;13395;50.752;4.268;2024-03-23T13:34:29;11.80;99.90
25482;DHT22;13395;50.752;4.268;2024-03-23T13:36:55;11.40;99.90
25482;DHT22;13395;50.752;4.268;2024-03-23T13:39:23;11.30;99.90
25482;DHT22;13395;50.752;4.268;2024-03-23T13:41:49;11.30;99.90
25482;DHT22;13395;50.752;4.268;2024-03-23T13:44:15;11.00;99.90
25482;DHT22;13395;50.752;4.268;2024-03-23T13:46:42;10.80;99.90
25482;DHT22;13395;50.752;4.268;2024-03-23T13:49:27;10.90;99.90
25482;DHT22;13395;50.752;4.268;2024-03-23T13:51:56;11.10;99.90
25482;DHT22;13395;50.752;4.268;2024-03-23T13:54:26;11.20;99.90
25482;DHT22;13395;50.752;4.268;2024-03-23T13:56:53;11.00;99.90
25482;DHT22;13395;50.752;4.268;2024-03-23T13:59:19;11.00;99.90
25482;DHT22;13395;50.752;4.268;2024-03-23T14:01:46;11.00;99.90
25482;DHT22;13395;50.752;4.268;2024-03-23T14:04:12;10.70;99.90
25482;DHT22;13395;50.752;4.268;2024-03-23T14:06:39;10.60;99.90
25482;DHT22;13395;50.752;4.268;2024-03-23T14:09:05;10.60;99.90
25482;DHT22;13395;50.752;4.268;2024-03-23T14:11:34;10.80;99.90
25482;DHT22;13395;50.752;4.268;2024-03-23T14:14:00;11.00;99.90
25482;DHT22;13395;50.752;4.268;2024-03-23T14:16:26;11.10;99.90
25482;DHT22;13395;50.752;4.268;2024-03-23T14:18:51;11.30;99.90
25482;DHT22;13395;50.752;4.268;2024-03-23T14:21:17;11.50;99.90
25482;DHT22;13395;50.752;4.268;2024-03-23T14:23:43;11.70;99.90
25482;DHT22;13395;50.752;4.268;2024-03-23T14:26:08;11.60;99.90
25482;DHT22;13395;50.752;4.268;2024-03-23T14:28:34;11.50;99.90
25482;DHT22;13395;50.752;4.268;2024-03-23T14:31:00;11.40;99.90
25482;DHT22;13395;50.752;4.268;2024-03-23T14:33:26;11.30;99.90
25482;DHT22;13395;50.752;4.268;2024-03-23T14:35:55;11.20;99.90
25482;DHT22;13395;50.752;4.268;2024-03-23T14:38:22;11.10;99.90
25482;DHT22;13395;50.752;4.268;2024-03-23T14:40:48;11.30;99.90
25482;DHT22;13395;50.752;4.268;2024-03-23T14:43:14;11.30;99.90
25482;DHT22;13395;50.752;4.268;2024-03-23T14:46:09;11.60;99.90
25482;DHT22;13395;50.752;4.268;2024-03-23T14:48:35;11.90;99.90
25482;DHT22;13395;50.752;4.268;2024-03-23T14:51:01;12.00;99.90
25482;DHT22;13395;50.752;4.268;2024-03-23T14:53:30;12.00;99.90
25482;DHT22;13395;50.752;4.268;2024-03-23T14:55:56;12.00;99.90
25482;DHT22;13395;50.752;4.268;2024-03-23T14:58:22;11.90;99.90
25482;DHT22;13395;50.752;4.268;2024-03-23T15:00:49;11.80;99.90
25482;DHT22;13395;50.752;4.268;2024-03-23T15:03:15;11.80;99.90
25482;DHT22;13395;50.752;4.268;2024-03-23T15:05:41;11.70;99.90
25482;DHT22;13395;50.752;4.268;2024-03-23T15:08:07;11.50;99.90
25482;DHT22;13395;50.752;4.268;2024-03-23T15:10:35;11.60;99.90
25482;DHT22;13395;50.752;4.268;2024-03-23T15:13:01;11.70;99.90
25482;DHT22;13395;50.752;4.268;2024-03-23T15:15:27;11.80;99.90
25482;DHT22;13395;50.752;4.268;2024-03-23T15:17:53;11.90;99.90
25482;DHT22;13395;50.752;4.268;2024-03-23T15:20:18;11.90;99.90
25482;DHT22;13395;50.752;4.268;2024-03-23T15:22:44;11.90;99.90
25482;DHT22;13395;50.752;4.268;2024-03-23T15:25:10;12.00;99.90
25482;DHT22;13395;50.752;4.268;2024-03-23T15:27:35;12.00;99.90
25482;DHT22;13395;50.752;4.268;2024-03-23T15:30:01;11.90;99.90
25482;DHT22;13395;50.752;4.268;2024-03-23T15:32:27;12.10;99.90
25482;DHT22;13395;50.752;4.268;2024-03-23T15:34:53;12.20;99.90
25482;DHT22;13395;50.752;4.268;2024-03-23T15:37:18;12.30;99.90
25482;DHT22;13395;50.752;4.268;2024-03-23T15:39:44;12.20;99.90
25482;DHT22;13395;50.752;4.268;2024-03-23T15:42:09;12.10;99.90
25482;DHT22;13395;50.752;4.268;2024-03-23T15:44:35;12.10;99.90
25482;DHT22;13395;50.752;4.268;2024-03-23T15:47:01;12.10;99.90
25482;DHT22;13395;50.752;4.268;2024-03-23T15:49:27;12.20;99.90
25482;DHT22;13395;50.752;4.268;2024-03-23T15:51:53;12.30;99.90
25482;DHT22;13395;50.752;4.268;2024-03-23T15:54:19;12.60;99.90
25482;DHT22;13395;50.752;4.268;2024-03-23T15:56:45;12.70;99.90
25482;DHT22;13395;50.752;4.268;2024-03-23T15:59:11;12.60;99.90
25482;DHT22;13395;50.752;4.268;2024-03-23T16:01:36;12.50;99.90
25482;DHT22;13395;50.752;4.268;2024-03-23T16:04:04;12.20;99.90
25482;DHT22;13395;50.752;4.268;2024-03-23T16:06:29;12.10;99.80
25482;DHT22;13395;50.752;4.268;2024-03-23T16:08:55;11.90;99.90
25482;DHT22;13395;50.752;4.268;2024-03-23T16:11:20;12.00;99.90
25482;DHT22;13395;50.752;4.268;2024-03-23T16:13:46;12.00;99.90
25482;DHT22;13395;50.752;4.268;2024-03-23T16:16:12;12.00;99.90
25482;DHT22;13395;50.752;4.268;2024-03-23T16:18:38;12.10;99.90
25482;DHT22;13395;50.752;4.268;2024-03-23T16:21:07;12.10;99.90
25482;DHT22;13395;50.752;4.268;2024-03-23T16:23:34;12.10;99.90
25482;DHT22;13395;50.752;4.268;2024-03-23T16:26:00;11.90;99.70
25482;DHT22;13395;50.752;4.268;2024-03-23T16:28:32;11.80;99.90
25482;DHT22;13395;50.752;4.268;2024-03-23T16:31:00;11.70;99.90
25482;DHT22;13395;50.752;4.268;2024-03-23T16:33:26;11.60;99.80
25482;DHT22;13395;50.752;4.268;2024-03-23T16:36:00;11.50;99.90
25482;DHT22;13395;50.752;4.268;2024-03-23T16:38:29;11.50;99.90
25482;DHT22;13395;50.752;4.268;2024-03-23T16:40:59;11.40;99.90
25482;DHT22;13395;50.752;4.268;2024-03-23T16:43:28;11.40;99.90
25482;DHT22;13395;50.752;4.268;2024-03-23T16:46:03;11.40;99.90